Terminal Aerodrome Forecast
Issued by NWS Buffalo, NY

Home | Current Version | Previous Version | Text Only | Print | Product List | Glossary On
Versions: 1 2 3 4 5 6 7 8 9 10 11 12 13 14 15 16 17 18 19 20 21 22 23 24 25 26 27 28
000
FTUS41 KBUF 302345
TAFROC
TAF
KROC 302345Z 3100/3124 26009KT P6SM VCTS SCT020 BKN050CB
     FM310300 30006KT 4SM TSRA BKN040CB
     FM310400 32008KT 4SM SHRA VCTS OVC030CB
     FM310600 01014G20KT 4SM SHRA BR OVC007
     FM311000 02014G21KT 5SM -RA BR OVC007
     FM311600 04014KT 6SM -RA OVC007
     FM311900 04014KT 6SM -RA OVC015=

USA.gov is the U.S. government's official web portal to all federal, state and local government web resources and services.